Terminal Aerodrome Forecast
Issued by NWS Shreveport, LA

Home | Current Version | Previous Version | Text Only | Print | Product List | Glossary On
Versions: 1 2 3 4 5 6 7 8 9 10 11 12 13
000
FTUS44 KSHV 031914 AAA
TAFELD
TAF AMD
KELD 031914Z 0319/0418 07012G22KT 4SM RA BR BKN009
      TEMPO 0319/0322 5SM BR SCT009 OVC060
     FM041000 02006KT 4SM -RA OVC005=

USA.gov is the U.S. government's official web portal to all federal, state and local government web resources and services.